Time;durP1;ratioP1;P1;durP2;ratioP2;P2;SDS_P1;SDS_P2;PMS_P1;PMS_P2;Temp;Humidity;BMP_temperature;BMP_pressure;BME280_temperature;BME280_humidity;BME280_pressure;Samples;Min_cycle;Max_cycle;Signal;HPM_P1;HPM_P2
2021/01/02 00:00:04;;;;;;;3.95;2.85;;;;;;;2.34;86.49;98006.51;1661504;86;21683;-68
2021/01/02 00:03:07;;;;;;;1.90;1.70;;;;;;;2.30;86.52;98002.48;1661235;85;21580;-67
2021/01/02 00:05:58;;;;;;;4.03;2.58;;;;;;;2.33;86.30;98014.30;1661860;85;21215;-68
2021/01/02 00:08:28;;;;;;;2.52;2.20;;;;;;;2.34;86.02;98015.48;1661367;86;21183;-67
2021/01/02 00:11:42;;;;;;;3.62;2.45;;;;;;;2.37;85.82;98015.77;1658795;85;21195;-68
2021/01/02 00:14:35;;;;;;;3.27;2.17;;;;;;;2.34;85.88;98017.22;1661215;86;21361;-68
2021/01/02 00:17:44;;;;;;;3.05;1.62;;;;;;;2.33;85.67;98021.52;1661124;85;21591;-66
2021/01/02 00:20:54;;;;;;;3.75;2.47;;;;;;;2.31;85.55;98023.36;1661336;85;21598;-67
2021/01/02 00:24:07;;;;;;;2.12;1.92;;;;;;;2.27;85.54;98025.73;1661344;86;21169;-67
2021/01/02 00:26:44;;;;;;;4.50;2.12;;;;;;;2.24;85.53;98024.63;1662399;86;21254;-66
2021/01/02 00:29:22;;;;;;;4.00;2.27;;;;;;;2.21;85.62;98027.38;1661274;86;21163;-68
2021/01/02 00:32:07;;;;;;;3.20;2.33;;;;;;;2.19;85.71;98031.75;1661097;85;21615;-68
2021/01/02 00:35:06;;;;;;;4.10;2.75;;;;;;;2.12;85.93;98031.75;1660993;86;21313;-68
2021/01/02 00:37:41;;;;;;;4.10;2.27;;;;;;;2.18;85.78;98039.06;1719319;82;21171;-67
2021/01/02 00:40:20;;;;;;;4.03;2.92;;;;;;;2.16;85.58;98038.34;1707084;84;21242;-69
2021/01/02 00:42:50;;;;;;;2.60;1.55;;;;;;;2.18;85.56;98048.52;1719911;83;21147;-67
2021/01/02 00:45:22;;;;;;;3.60;2.62;;;;;;;2.20;85.38;98045.39;1706775;84;21174;-67
2021/01/02 00:47:51;;;;;;;3.95;2.45;;;;;;;2.22;85.17;98045.66;1719489;82;21129;-65
2021/01/02 00:50:25;;;;;;;2.72;1.77;;;;;;;2.19;85.12;98047.13;1719104;82;21188;-64
2021/01/02 00:52:59;;;;;;;5.72;2.25;;;;;;;2.20;85.09;98046.22;1707012;84;21187;-67
2021/01/02 00:55:52;;;;;;;3.83;2.77;;;;;;;2.24;84.86;98054.09;1719568;83;21172;-67
2021/01/02 00:58:56;;;;;;;2.15;1.47;;;;;;;2.21;84.99;98053.45;1719131;82;21139;-67
2021/01/02 01:01:31;;;;;;;4.50;2.52;;;;;;;2.18;85.15;98056.20;1719028;82;21156;-67
2021/01/02 01:04:27;;;;;;;2.72;2.22;;;;;;;2.20;85.01;98060.31;1706478;83;21187;-67
2021/01/02 01:06:56;;;;;;;3.08;1.90;;;;;;;2.25;84.87;98060.88;1719382;83;21179;-67
2021/01/02 01:09:24;;;;;;;5.95;1.72;;;;;;;2.29;84.65;98050.00;1706968;84;21158;-67
2021/01/02 01:11:54;;;;;;;2.08;1.92;;;;;;;2.23;84.89;98054.17;1719069;83;21657;-67
2021/01/02 01:14:23;;;;;;;3.12;2.42;;;;;;;2.20;84.94;98048.78;1706727;84;21179;-67
2021/01/02 01:16:57;;;;;;;3.25;1.55;;;;;;;2.13;85.50;98049.23;1719634;82;21235;-67
2021/01/02 01:19:28;;;;;;;4.00;3.00;;;;;;;2.15;85.20;98056.35;1706797;84;21144;-67
2021/01/02 01:21:58;;;;;;;3.17;2.02;;;;;;;2.04;85.69;98054.87;1719537;82;21243;-67
2021/01/02 01:24:49;;;;;;;6.67;3.27;;;;;;;1.99;86.15;98060.70;1693566;82;21239;-67
2021/01/02 01:27:54;;;;;;;4.47;3.30;;;;;;;1.90;86.39;98059.06;1679683;84;21178;-67
2021/01/02 01:30:23;;;;;;;3.42;2.47;;;;;;;1.89;86.55;98062.97;1719437;82;21199;-68
2021/01/02 01:33:03;;;;;;;5.30;3.05;;;;;;;1.85;86.75;98064.06;1706512;84;21577;-68
2021/01/02 01:35:31;;;;;;;2.50;2.12;;;;;;;1.78;86.77;98062.76;1718427;82;21195;-68
2021/01/02 01:37:59;;;;;;;2.42;2.22;;;;;;;1.74;86.90;98062.11;1695778;84;21306;-68
2021/01/02 01:40:31;;;;;;;5.10;3.02;;;;;;;1.74;86.84;98067.23;1733143;83;21143;-68
2021/01/02 01:43:06;;;;;;;3.58;2.35;;;;;;;1.71;86.89;98069.14;1695624;84;21235;-67
2021/01/02 01:45:43;;;;;;;5.17;3.23;;;;;;;1.65;87.19;98078.42;1733459;83;21139;-67
2021/01/02 01:48:20;;;;;;;3.58;2.55;;;;;;;1.59;87.24;98083.89;1725505;83;21713;-69
2021/01/02 01:51:24;;;;;;;4.42;2.25;;;;;;;1.56;87.52;98080.20;1695505;84;21175;-68
2021/01/02 01:54:02;;;;;;;2.60;2.40;;;;;;;1.53;87.39;98078.64;1674257;85;21770;-67
2021/01/02 01:56:40;;;;;;;3.85;3.42;;;;;;;1.47;87.59;98086.66;1666161;86;21623;-68
2021/01/02 01:59:28;;;;;;;4.05;2.92;;;;;;;1.44;87.70;98090.20;1667026;85;21632;-64
2021/01/02 02:01:56;;;;;;;4.33;2.45;;;;;;;1.38;87.69;98090.54;1667101;85;21623;-64
2021/01/02 02:04:51;;;;;;;4.15;2.10;;;;;;;1.42;87.12;98086.08;1667780;85;21179;-68
2021/01/02 02:07:20;;;;;;;3.98;3.15;;;;;;;1.34;87.82;98085.22;1667809;86;21234;-64
2021/01/02 02:10:00;;;;;;;5.97;2.58;;;;;;;1.28;87.89;98091.95;1644605;86;21227;-63
2021/01/02 02:12:34;;;;;;;2.62;2.15;;;;;;;1.28;87.85;98088.13;1667256;86;21191;-64
2021/01/02 02:15:08;;;;;;;4.20;3.02;;;;;;;1.26;87.67;98087.81;1666988;86;21365;-65
2021/01/02 02:17:45;;;;;;;4.30;2.70;;;;;;;1.22;87.71;98089.71;1639262;87;21198;-63
2021/01/02 02:20:19;;;;;;;3.40;2.72;;;;;;;1.14;88.18;98086.73;1674252;86;21187;-63
2021/01/02 02:22:46;;;;;;;3.90;2.80;;;;;;;1.12;87.81;98085.17;1673900;86;21683;-63
2021/01/02 02:25:17;;;;;;;4.78;2.37;;;;;;;1.04;88.38;98079.64;1644489;86;21203;-64
2021/01/02 02:27:47;;;;;;;5.97;3.12;;;;;;;1.02;87.92;98086.09;1667119;86;21599;-63
2021/01/02 02:30:32;;;;;;;4.65;3.20;;;;;;;0.94;88.47;98087.78;1667183;85;21170;-67
2021/01/02 02:33:04;;;;;;;2.75;2.55;;;;;;;0.92;88.53;98081.94;1666956;85;21294;-62
2021/01/02 02:35:35;;;;;;;6.53;2.12;;;;;;;0.86;88.82;98076.30;1667037;86;21373;-64
2021/01/02 02:38:04;;;;;;;2.65;2.42;;;;;;;0.84;88.84;98073.02;1667039;86;21600;-64
2021/01/02 02:40:32;;;;;;;2.50;2.00;;;;;;;0.81;88.76;98066.34;1666889;86;21726;-63
2021/01/02 02:43:03;;;;;;;3.77;2.08;;;;;;;0.78;89.21;98071.59;1667261;85;21309;-62
2021/01/02 02:45:33;;;;;;;4.22;2.50;;;;;;;0.75;89.37;98074.31;1667298;85;21664;-63
2021/01/02 02:48:09;;;;;;;3.22;2.80;;;;;;;0.74;89.37;98070.57;1667154;86;21183;-62
2021/01/02 02:50:38;;;;;;;3.20;2.22;;;;;;;0.72;89.09;98079.59;1639290;87;21677;-63
2021/01/02 02:53:12;;;;;;;7.87;3.12;;;;;;;0.73;88.60;98087.63;1674060;85;21155;-63
2021/01/02 02:55:45;;;;;;;2.70;2.12;;;;;;;0.73;88.55;98083.80;1674214;85;21207;-63
2021/01/02 02:58:13;;;;;;;4.40;2.50;;;;;;;0.71;88.78;98077.92;1674161;86;21297;-62
2021/01/02 03:00:41;;;;;;;5.00;2.80;;;;;;;0.67;89.36;98080.71;1674323;84;21170;-63
2021/01/02 03:03:10;;;;;;;5.78;2.45;;;;;;;0.66;89.24;98074.77;1674233;86;21632;-62
2021/01/02 03:05:40;;;;;;;2.02;1.60;;;;;;;0.52;89.35;98055.50;1674188;84;21200;-63
2021/01/02 03:08:08;;;;;;;4.17;2.27;;;;;;;0.64;89.34;98071.94;1674279;86;21206;-63
2021/01/02 03:10:36;;;;;;;3.00;2.33;;;;;;;0.65;88.97;98073.59;1674458;86;21187;-63
2021/01/02 03:13:05;;;;;;;3.08;2.58;;;;;;;0.62;89.12;98080.97;1674247;86;21647;-62
2021/01/02 03:15:39;;;;;;;2.37;1.62;;;;;;;0.59;89.21;98076.45;1674507;86;21147;-62
2021/01/02 03:18:07;;;;;;;3.27;2.98;;;;;;;0.62;88.79;98080.97;1674651;85;21233;-62
2021/01/02 03:20:35;;;;;;;3.83;2.25;;;;;;;0.60;88.74;98076.38;1674917;84;21187;-62
2021/01/02 03:23:05;;;;;;;1.80;1.67;;;;;;;0.57;88.77;98080.83;1674885;86;21308;-63
2021/01/02 03:25:33;;;;;;;2.30;1.60;;;;;;;0.59;88.42;98077.72;1674570;84;21722;-65
2021/01/02 03:28:02;;;;;;;2.70;2.10;;;;;;;0.58;88.46;98069.26;1674429;85;21317;-63
2021/01/02 03:30:30;;;;;;;5.03;2.45;;;;;;;0.55;88.35;98071.95;1674806;85;21164;-64
2021/01/02 03:32:58;;;;;;;4.78;2.17;;;;;;;0.57;88.09;98075.71;1674841;86;21167;-64
2021/01/02 03:35:26;;;;;;;4.33;2.87;;;;;;;0.56;87.96;98081.72;1674515;86;21226;-64
2021/01/02 03:37:55;;;;;;;3.42;2.35;;;;;;;0.57;87.79;98079.09;1674937;86;21675;-65
2021/01/02 03:40:23;;;;;;;2.72;1.80;;;;;;;0.60;87.53;98080.21;1674648;86;21337;-65
2021/01/02 03:42:51;;;;;;;1.98;1.75;;;;;;;0.52;87.27;98071.28;1674781;84;21313;-68
2021/01/02 03:45:19;;;;;;;4.47;2.15;;;;;;;0.53;87.00;98090.83;1674800;84;21139;-64
2021/01/02 03:47:48;;;;;;;2.77;2.08;;;;;;;0.50;87.26;98094.81;1674715;84;21587;-65
2021/01/02 03:50:16;;;;;;;2.52;1.70;;;;;;;0.52;87.29;98095.55;1674638;86;21170;-64
2021/01/02 03:52:44;;;;;;;2.83;1.95;;;;;;;0.51;87.19;98088.81;1673532;84;21151;-64
2021/01/02 03:55:13;;;;;;;4.85;2.58;;;;;;;0.50;87.01;98089.71;1671923;86;21171;-64
2021/01/02 03:57:43;;;;;;;2.58;2.25;;;;;;;0.46;86.93;98077.55;1672097;86;21224;-65
2021/01/02 04:00:33;;;;;;;3.72;1.92;;;;;;;0.37;86.41;98081.83;1671644;86;21293;-66
2021/01/02 04:03:24;;;;;;;1.57;1.35;;;;;;;0.37;86.41;98081.83;1709727;84;21187;-65
2021/01/02 04:05:52;;;;;;;3.47;2.33;;;;;;;0.32;86.67;98083.33;1709499;83;21166;-64
2021/01/02 04:08:20;;;;;;;4.05;2.58;;;;;;;0.31;86.63;98088.06;1709641;84;21171;-64
2021/01/02 04:10:49;;;;;;;2.40;2.20;;;;;;;0.28;86.57;98092.05;1709766;84;21235;-65
2021/01/02 04:13:18;;;;;;;5.08;2.08;;;;;;;0.24;86.67;98091.83;1709649;84;21495;-65
2021/01/02 04:15:46;;;;;;;2.25;2.05;;;;;;;0.21;86.61;98085.59;1709533;84;21653;-65
2021/01/02 04:18:14;;;;;;;3.27;2.00;;;;;;;0.18;86.81;98091.31;1709404;84;21196;-64
2021/01/02 04:20:42;;;;;;;4.55;2.20;;;;;;;0.17;86.58;98087.92;1709564;84;21143;-65
2021/01/02 04:23:10;;;;;;;5.37;2.80;;;;;;;0.15;86.49;98087.19;1709509;84;21591;-64
2021/01/02 04:25:40;;;;;;;3.80;3.17;;;;;;;0.12;87.20;98093.70;1709654;84;21147;-65
2021/01/02 04:28:12;;;;;;;2.08;1.85;;;;;;;0.12;87.41;98101.36;1709435;84;21240;-64
2021/01/02 04:30:40;;;;;;;2.70;2.02;;;;;;;0.14;87.12;98105.13;1709428;84;21614;-64
2021/01/02 04:33:08;;;;;;;3.80;1.87;;;;;;;0.15;86.84;98114.45;1710079;84;21178;-64
2021/01/02 04:35:37;;;;;;;4.10;2.77;;;;;;;0.11;87.03;98115.50;1709876;84;21615;-64
2021/01/02 04:38:05;;;;;;;3.12;1.98;;;;;;;0.07;87.71;98130.14;1709670;84;21560;-64
2021/01/02 04:40:33;;;;;;;2.10;1.67;;;;;;;0.10;87.10;98129.98;1709424;84;21643;-64
2021/01/02 04:45:43;;;;;;;3.20;2.35;;;;;;;0.11;86.73;98122.71;1702766;84;21211;-65
2021/01/02 04:48:12;;;;;;;4.83;2.30;;;;;;;0.11;86.72;98133.37;1668567;86;21179;-64
2021/01/02 04:50:40;;;;;;;2.17;1.87;;;;;;;0.12;86.67;98135.03;1668596;86;21603;-64
2021/01/02 04:53:09;;;;;;;3.25;2.40;;;;;;;0.12;86.54;98128.66;1702725;84;21166;-65
2021/01/02 04:56:03;;;;;;;2.85;2.08;;;;;;;0.08;86.43;98129.22;1649693;86;21143;-65
2021/01/02 04:58:36;;;;;;;2.33;1.75;;;;;;;0.06;86.53;98119.99;1653643;87;21330;-68
2021/01/02 05:01:05;;;;;;;4.60;2.42;;;;;;;0.04;86.27;98132.02;1684497;85;21202;-68
2021/01/02 05:03:35;;;;;;;3.33;2.47;;;;;;;-0.01;87.02;98133.52;1656334;87;21753;-68
2021/01/02 05:06:04;;;;;;;2.60;2.25;;;;;;;-0.03;87.10;98137.84;1653369;87;21640;-68
2021/01/02 05:08:31;;;;;;;2.37;1.70;;;;;;;-0.05;87.62;98143.49;1684649;85;21182;-68
2021/01/02 05:11:03;;;;;;;4.08;2.08;;;;;;;-0.03;87.02;98143.78;1632037;87;21180;-69
2021/01/02 05:13:34;;;;;;;2.62;1.87;;;;;;;0.00;86.81;98148.73;1627124;88;21199;-69
2021/01/02 05:16:23;;;;;;;3.15;1.90;;;;;;;0.00;86.81;98148.73;1684621;85;21222;-69
2021/01/02 05:19:09;;;;;;;2.42;2.22;;;;;;;0.00;86.61;98150.49;1653673;87;21191;-68
2021/01/02 05:21:46;;;;;;;5.45;2.72;;;;;;;-0.01;86.49;98157.32;1654903;87;21235;-69
2021/01/02 05:24:20;;;;;;;4.45;3.47;;;;;;;0.00;86.38;98152.56;1598594;90;21653;-69
2021/01/02 05:27:00;;;;;;;2.75;1.80;;;;;;;-0.03;86.26;98154.44;1627208;88;21175;-68
2021/01/02 05:29:30;;;;;;;2.83;2.25;;;;;;;-0.07;86.91;98160.59;1625564;87;21264;-68
2021/01/02 05:32:04;;;;;;;2.77;1.92;;;;;;;-0.10;87.19;98161.58;1625559;87;21202;-69
2021/01/02 05:34:34;;;;;;;2.92;2.05;;;;;;;-0.08;86.79;98156.41;1625877;88;21389;-68
2021/01/02 05:37:11;;;;;;;3.90;2.37;;;;;;;-0.15;87.32;98158.41;1625443;87;21197;-68
2021/01/02 05:39:52;;;;;;;4.00;1.62;;;;;;;-0.14;87.20;98162.61;1625385;88;21253;-68
2021/01/02 05:42:21;;;;;;;3.65;3.30;;;;;;;-0.11;86.71;98171.40;1625378;87;21205;-69
2021/01/02 05:44:50;;;;;;;2.33;1.45;;;;;;;-0.11;86.71;98171.40;1625276;88;21166;-69
2021/01/02 05:47:21;;;;;;;2.75;2.05;;;;;;;-0.10;86.58;98175.61;1626300;88;21201;-69
2021/01/02 05:49:51;;;;;;;2.62;2.08;;;;;;;-0.12;86.43;98179.15;1625932;88;21217;-68
2021/01/02 05:52:19;;;;;;;2.22;1.65;;;;;;;-0.15;86.56;98183.09;1625506;88;21185;-67
2021/01/02 05:54:53;;;;;;;2.40;2.20;;;;;;;-0.15;86.53;98175.44;1625788;87;21185;-67
2021/01/02 05:57:29;;;;;;;4.05;2.65;;;;;;;-0.16;86.49;98179.74;1625658;87;21223;-67
2021/01/02 05:59:59;;;;;;;4.15;2.42;;;;;;;-0.22;86.57;98172.35;1625569;87;21166;-68
2021/01/02 06:02:31;;;;;;;3.90;2.83;;;;;;;-0.16;86.73;98184.02;1625486;88;21606;-68
2021/01/02 06:05:07;;;;;;;3.27;2.00;;;;;;;-0.17;86.59;98179.80;1625535;87;21602;-68
2021/01/02 06:07:39;;;;;;;4.00;2.22;;;;;;;-0.22;86.47;98181.28;1625368;87;21210;-68
2021/01/02 06:10:10;;;;;;;3.75;2.02;;;;;;;-0.23;86.47;98182.62;1624138;87;21277;-68
2021/01/02 06:12:42;;;;;;;6.05;2.50;;;;;;;-0.32;86.98;98189.45;1627022;88;21627;-68
2021/01/02 06:15:15;;;;;;;3.95;2.20;;;;;;;-0.33;86.84;98196.71;1625697;88;21186;-68
2021/01/02 06:18:04;;;;;;;3.17;2.12;;;;;;;-0.35;86.71;98194.69;1624419;88;21637;-68
2021/01/02 06:20:32;;;;;;;1.90;1.35;;;;;;;-0.34;86.83;98199.70;1669210;86;21193;-69
2021/01/02 06:23:01;;;;;;;3.83;2.00;;;;;;;-0.38;86.94;98196.08;1669233;86;21189;-69
2021/01/02 06:25:29;;;;;;;4.90;2.47;;;;;;;-0.36;86.59;98201.52;1669663;86;21180;-68
2021/01/02 06:27:57;;;;;;;2.52;2.25;;;;;;;-0.36;87.23;98199.41;1669809;86;21169;-68
2021/01/02 06:30:40;;;;;;;2.83;2.12;;;;;;;-0.36;87.23;98199.41;1664606;86;21227;-68
2021/01/02 06:33:14;;;;;;;3.47;2.40;;;;;;;-0.37;86.98;98200.30;1665974;86;21593;-68
2021/01/02 06:35:43;;;;;;;3.02;2.30;;;;;;;-0.36;87.03;98195.58;1665760;86;21231;-67
2021/01/02 06:38:14;;;;;;;3.42;2.95;;;;;;;-0.42;87.53;98203.05;1665965;86;21230;-67
2021/01/02 06:40:46;;;;;;;3.42;1.98;;;;;;;-0.41;87.55;98203.44;1665938;86;21585;-70
2021/01/02 06:43:24;;;;;;;3.05;2.47;;;;;;;-0.39;87.82;98195.73;1665870;86;21279;-67
2021/01/02 06:45:57;;;;;;;2.80;1.77;;;;;;;-0.43;88.61;98201.87;1666084;86;21678;-70
2021/01/02 06:48:35;;;;;;;4.03;2.20;;;;;;;-0.50;88.15;98185.98;1705152;82;21160;-67
2021/01/02 06:51:08;;;;;;;3.72;2.67;;;;;;;-0.39;88.53;98211.87;1755302;82;21302;-67
2021/01/02 06:53:37;;;;;;;2.70;2.40;;;;;;;-0.38;88.17;98216.50;1745498;82;21619;-68
2021/01/02 06:56:16;;;;;;;4.03;2.67;;;;;;;-0.38;88.37;98210.95;1755193;82;21274;-69
2021/01/02 06:58:47;;;;;;;3.15;2.27;;;;;;;-0.30;88.06;98219.09;1755218;81;21766;-67
2021/01/02 07:01:23;;;;;;;4.95;2.37;;;;;;;-0.30;88.06;98219.09;1755123;82;21293;-69
2021/01/02 07:03:51;;;;;;;3.58;2.52;;;;;;;-0.26;87.98;98220.61;1755558;81;21289;-67
2021/01/02 07:06:24;;;;;;;2.33;2.12;;;;;;;-0.23;87.91;98213.24;1755568;82;21215;-69
2021/01/02 07:09:16;;;;;;;2.90;2.35;;;;;;;-0.24;87.79;98209.89;1755145;82;21294;-66
2021/01/02 07:11:46;;;;;;;2.92;2.65;;;;;;;-0.17;87.83;98218.09;1755254;81;21270;-69
2021/01/02 07:14:24;;;;;;;3.80;2.45;;;;;;;-0.16;87.70;98214.64;1755121;82;21235;-69
2021/01/02 07:17:02;;;;;;;5.05;3.45;;;;;;;-0.16;88.09;98222.30;1755383;81;21346;-69
2021/01/02 07:19:57;;;;;;;3.05;2.60;;;;;;;-0.11;87.74;98226.72;1724577;83;21771;-69
2021/01/02 07:22:48;;;;;;;6.90;2.58;;;;;;;-0.06;88.09;98228.62;1665359;86;21163;-69
2021/01/02 07:25:19;;;;;;;2.85;2.50;;;;;;;-0.06;88.09;98228.62;1660848;86;21260;-69
2021/01/02 07:27:48;;;;;;;2.77;2.27;;;;;;;-0.01;87.80;98216.48;1624257;88;21550;-69
2021/01/02 07:30:37;;;;;;;2.67;2.47;;;;;;;0.09;87.61;98224.08;1624440;88;21152;-69
2021/01/02 07:33:05;;;;;;;3.60;2.25;;;;;;;0.13;87.82;98226.88;1666911;85;21315;-69
2021/01/02 07:35:33;;;;;;;4.53;3.22;;;;;;;0.21;87.39;98226.51;1666856;85;21314;-69
2021/01/02 07:38:01;;;;;;;5.95;3.37;;;;;;;0.27;87.22;98223.68;1667008;85;21291;-69
2021/01/02 07:40:35;;;;;;;2.87;2.58;;;;;;;0.32;87.21;98225.55;1666887;85;21224;-69
2021/01/02 07:43:08;;;;;;;2.27;2.00;;;;;;;0.40;86.93;98231.95;1643794;85;21173;-69
2021/01/02 07:45:36;;;;;;;4.70;2.62;;;;;;;0.47;86.74;98238.41;1644122;85;21276;-69
2021/01/02 07:48:05;;;;;;;1.70;1.52;;;;;;;0.56;86.71;98238.42;1666809;85;21358;-69
2021/01/02 07:50:35;;;;;;;2.52;1.90;;;;;;;0.64;86.41;98239.33;1666647;85;21365;-69
2021/01/02 07:53:03;;;;;;;5.20;3.20;;;;;;;0.73;86.03;98233.33;1666717;85;21315;-69
2021/01/02 07:55:33;;;;;;;3.02;2.27;;;;;;;0.81;85.71;98228.67;1666638;85;21196;-68
2021/01/02 07:58:02;;;;;;;3.15;2.52;;;;;;;0.91;85.65;98230.30;1666672;85;22294;-68
2021/01/02 08:00:31;;;;;;;3.83;2.08;;;;;;;0.95;85.40;98227.52;1665337;85;21197;-70
2021/01/02 08:05:49;;;;;;;3.08;2.20;;;;;;;1.12;85.14;98234.34;1637148;86;21242;-72
2021/01/02 08:08:18;;;;;;;4.58;2.35;;;;;;;1.18;84.73;98230.19;1638032;87;21275;-70
2021/01/02 08:10:46;;;;;;;5.42;2.70;;;;;;;1.27;84.91;98227.61;1638210;87;21183;-65
2021/01/02 08:13:16;;;;;;;8.30;3.40;;;;;;;1.37;84.44;98236.01;1630213;87;21155;-65
2021/01/02 08:15:46;;;;;;;3.67;2.00;;;;;;;1.43;84.12;98234.43;1638234;86;21586;-67
2021/01/02 08:18:14;;;;;;;6.87;2.83;;;;;;;1.57;83.64;98232.41;1614401;87;21187;-69
2021/01/02 08:20:42;;;;;;;3.52;1.80;;;;;;;1.68;83.05;98236.51;1638054;87;21329;-72
2021/01/02 08:23:18;;;;;;;6.35;3.45;;;;;;;1.84;82.76;98241.64;1638161;87;21322;-70
2021/01/02 08:25:47;;;;;;;3.62;2.08;;;;;;;1.94;83.03;98238.98;1638628;87;21219;-70
2021/01/02 08:28:16;;;;;;;3.40;2.52;;;;;;;2.23;81.61;98236.92;1614604;87;21220;-70
2021/01/02 08:30:44;;;;;;;3.77;1.80;;;;;;;2.55;80.02;98238.98;1638336;87;21200;-70
2021/01/02 08:33:15;;;;;;;2.62;1.98;;;;;;;2.87;79.89;98246.13;1638153;87;21624;-68
2021/01/02 08:35:44;;;;;;;4.22;2.60;;;;;;;3.09;77.42;98238.00;1638057;87;21675;-73
2021/01/02 08:38:14;;;;;;;4.12;2.45;;;;;;;3.43;76.77;98241.51;1637977;87;21325;-68
2021/01/02 08:40:49;;;;;;;4.42;3.17;;;;;;;3.66;75.72;98245.25;1637983;87;21617;-67
2021/01/02 08:43:27;;;;;;;3.85;2.52;;;;;;;3.81;74.50;98241.78;1637947;87;21342;-67
2021/01/02 08:46:04;;;;;;;7.70;2.77;;;;;;;4.20;72.98;98242.34;1638170;87;21195;-74
2021/01/02 08:48:32;;;;;;;3.47;2.00;;;;;;;4.55;72.85;98234.95;1638026;87;21345;-74
2021/01/02 08:51:00;;;;;;;3.92;2.92;;;;;;;4.91;70.66;98229.97;1638360;87;21615;-72
2021/01/02 08:53:33;;;;;;;3.20;2.70;;;;;;;5.02;70.76;98229.28;1638154;87;21727;-71
2021/01/02 08:56:22;;;;;;;3.92;2.65;;;;;;;5.11;69.63;98227.36;1638167;87;21271;-70
2021/01/02 08:58:51;;;;;;;3.20;2.50;;;;;;;5.20;69.08;98223.72;1638219;87;21200;-66
2021/01/02 09:01:20;;;;;;;3.00;2.40;;;;;;;5.41;68.26;98217.56;1638547;86;21199;-66
2021/01/02 09:03:48;;;;;;;3.85;2.33;;;;;;;5.72;67.89;98227.41;1638821;85;21838;-68
2021/01/02 09:06:27;;;;;;;4.25;2.15;;;;;;;6.21;65.87;98220.16;1651872;85;21606;-68
2021/01/02 09:09:25;;;;;;;4.45;2.45;;;;;;;6.51;65.96;98216.66;1651840;85;21179;-67
2021/01/02 09:11:54;;;;;;;4.33;2.10;;;;;;;6.40;63.39;98219.66;1689031;84;21658;-67
2021/01/02 09:14:23;;;;;;;5.83;2.58;;;;;;;6.41;64.29;98214.86;1688632;85;21181;-65
2021/01/02 09:17:01;;;;;;;5.80;2.37;;;;;;;6.78;61.69;98211.70;1688733;85;21207;-63
2021/01/02 09:19:30;;;;;;;4.10;2.27;;;;;;;7.06;61.06;98210.84;1688809;84;21173;-64
2021/01/02 09:21:58;;;;;;;7.12;2.27;;;;;;;6.96;60.45;98209.89;1688097;84;21160;-64
2021/01/02 09:24:29;;;;;;;3.87;2.12;;;;;;;7.02;60.78;98206.02;1675274;85;21570;-65
2021/01/02 09:26:57;;;;;;;3.45;1.95;;;;;;;7.43;59.39;98208.86;1688289;84;21673;-66
2021/01/02 09:29:25;;;;;;;2.80;2.08;;;;;;;7.35;59.82;98210.41;1688397;85;21189;-67
2021/01/02 09:31:53;;;;;;;2.60;1.80;;;;;;;7.51;59.13;98208.28;1688116;84;21189;-69
2021/01/02 09:34:21;;;;;;;2.42;1.45;;;;;;;7.38;59.86;98203.72;1688545;85;21173;-68
2021/01/02 09:36:53;;;;;;;2.90;2.12;;;;;;;7.84;58.18;98206.98;1688066;85;21173;-67
2021/01/02 09:39:24;;;;;;;5.28;2.20;;;;;;;7.85;58.35;98193.59;1688033;85;21201;-65
2021/01/02 09:41:52;;;;;;;3.50;2.08;;;;;;;7.87;58.33;98192.52;1687704;85;21602;-68
2021/01/02 09:44:20;;;;;;;4.83;1.67;;;;;;;8.26;58.61;98186.42;1689300;85;21193;-65
2021/01/02 09:46:51;;;;;;;4.58;1.95;;;;;;;8.49;57.29;98183.66;1689155;84;21177;-68
2021/01/02 09:49:20;;;;;;;3.98;2.20;;;;;;;9.32;55.24;98172.45;1688619;85;21171;-67
2021/01/02 09:51:49;;;;;;;5.53;2.58;;;;;;;9.61;54.12;98173.88;1689257;85;21162;-65
2021/01/02 09:54:17;;;;;;;4.12;3.08;;;;;;;9.97;52.23;98170.68;1689373;85;21184;-65
2021/01/02 09:56:46;;;;;;;4.03;2.60;;;;;;;10.21;50.99;98158.19;1688840;84;21162;-66
2021/01/02 09:59:16;;;;;;;5.12;2.80;;;;;;;10.85;50.79;98156.33;1689234;85;21661;-67
2021/01/02 10:01:44;;;;;;;4.35;2.60;;;;;;;10.21;50.24;98157.36;1688316;84;21194;-66
2021/01/02 10:04:12;;;;;;;5.85;3.08;;;;;;;10.21;50.33;98158.19;1687261;84;21961;-64
2021/01/02 10:06:46;;;;;;;4.00;2.75;;;;;;;9.49;52.41;98163.58;1681635;84;21204;-65
2021/01/02 10:09:15;;;;;;;5.15;2.87;;;;;;;9.35;53.11;98160.53;1682252;84;21180;-66
2021/01/02 10:11:44;;;;;;;7.05;3.10;;;;;;;9.27;54.42;98156.47;1697995;83;21163;-64
2021/01/02 10:14:13;;;;;;;3.67;2.45;;;;;;;8.61;55.41;98157.25;1702270;83;21171;-64
2021/01/02 10:16:41;;;;;;;6.53;2.52;;;;;;;8.58;56.39;98154.92;1701541;83;21196;-69
2021/01/02 10:19:10;;;;;;;7.12;2.83;;;;;;;8.18;57.46;98153.88;1700914;84;21543;-68
2021/01/02 10:21:38;;;;;;;4.42;2.83;;;;;;;7.60;58.87;98142.97;1698824;84;21216;-66
2021/01/02 10:26:47;;;;;;;10.72;5.58;;;;;;;6.79;61.75;98112.69;1670890;86;21143;-65
2021/01/02 10:29:15;;;;;;;13.70;7.08;;;;;;;7.13;61.49;98140.17;1648181;86;21252;-65
2021/01/02 10:31:44;;;;;;;30.52;13.00;;;;;;;7.18;61.62;98135.95;1633064;87;21625;-65
2021/01/02 10:34:14;;;;;;;15.45;7.85;;;;;;;7.14;61.73;98131.03;1627037;88;21185;-65
2021/01/02 10:36:47;;;;;;;5.72;3.12;;;;;;;7.15;61.78;98130.56;1624925;88;21204;-65
2021/01/02 10:39:15;;;;;;;2.83;2.52;;;;;;;6.50;63.56;98120.83;1625122;87;21251;-64
2021/01/02 10:41:47;;;;;;;3.17;2.10;;;;;;;6.59;63.45;98127.08;1625229;87;21220;-65
2021/01/02 10:44:18;;;;;;;3.70;2.55;;;;;;;6.64;63.55;98127.56;1614848;86;21179;-63
2021/01/02 10:46:53;;;;;;;3.77;2.65;;;;;;;6.71;63.62;98125.34;1671726;84;21135;-63
2021/01/02 10:49:23;;;;;;;2.90;2.10;;;;;;;7.04;63.01;98122.81;1646291;86;21143;-63
2021/01/02 10:51:51;;;;;;;4.53;2.62;;;;;;;7.94;60.49;98116.56;1671448;84;22325;-64
2021/01/02 10:54:22;;;;;;;3.30;2.30;;;;;;;8.56;58.08;98107.61;1670815;84;21263;-65
2021/01/02 10:56:53;;;;;;;5.45;2.05;;;;;;;8.22;58.23;98106.12;1671951;84;21340;-64
2021/01/02 10:59:23;;;;;;;2.98;1.62;;;;;;;8.53;58.03;98100.11;1671927;85;21214;-65
2021/01/02 11:01:55;;;;;;;4.30;2.35;;;;;;;8.78;56.22;98093.73;1671650;85;21741;-69
2021/01/02 11:04:27;;;;;;;5.85;2.22;;;;;;;9.23;54.76;98094.19;1672140;84;21148;-69
2021/01/02 11:06:55;;;;;;;4.65;2.52;;;;;;;9.48;54.47;98085.49;1634343;88;21221;-69
2021/01/02 11:09:25;;;;;;;2.75;2.05;;;;;;;10.48;51.63;98080.44;1621760;88;21223;-69
2021/01/02 11:11:54;;;;;;;4.80;2.27;;;;;;;10.67;51.11;98071.79;1634380;87;21642;-69
2021/01/02 11:14:23;;;;;;;2.35;2.00;;;;;;;10.68;49.75;98070.84;1635100;88;21185;-70
2021/01/02 11:16:51;;;;;;;4.00;2.42;;;;;;;11.39;48.54;98067.22;1634318;87;21185;-66
2021/01/02 11:19:22;;;;;;;4.12;2.40;;;;;;;11.49;47.13;98060.16;1608030;89;21169;-65
2021/01/02 11:21:53;;;;;;;3.52;2.10;;;;;;;12.03;46.34;98062.35;1664145;86;21617;-66
2021/01/02 11:24:26;;;;;;;4.28;2.30;;;;;;;12.00;46.18;98052.24;1658152;86;21199;-67
2021/01/02 11:26:59;;;;;;;4.75;1.87;;;;;;;12.37;45.45;98055.50;1687403;85;21157;-66
2021/01/02 11:29:30;;;;;;;3.27;1.65;;;;;;;12.83;44.03;98049.13;1692657;85;21327;-66
2021/01/02 11:32:02;;;;;;;3.62;2.08;;;;;;;12.49;44.51;98052.17;1693861;85;21169;-66
2021/01/02 11:34:31;;;;;;;4.87;1.90;;;;;;;12.62;43.75;98045.56;1654151;85;21593;-66
2021/01/02 11:37:01;;;;;;;3.70;1.77;;;;;;;13.14;42.86;98039.86;1670237;85;21175;-66
2021/01/02 11:39:31;;;;;;;3.70;2.08;;;;;;;12.91;42.94;98039.22;1693717;85;21166;-66
2021/01/02 11:42:01;;;;;;;3.00;2.20;;;;;;;12.71;43.52;98043.84;1693498;83;21363;-73
2021/01/02 11:44:29;;;;;;;6.97;2.00;;;;;;;12.78;43.30;98040.94;1632862;86;21209;-71
2021/01/02 11:46:59;;;;;;;2.12;1.70;;;;;;;13.53;42.47;98036.23;1693601;83;21209;-71
2021/01/02 11:49:32;;;;;;;2.47;1.80;;;;;;;13.09;41.36;98035.56;1694210;83;21194;-71
2021/01/02 11:52:05;;;;;;;4.95;1.70;;;;;;;13.02;41.54;98027.22;1657366;86;21431;-71
2021/01/02 11:54:34;;;;;;;4.17;2.50;;;;;;;13.40;40.87;98033.73;1693395;84;21296;-71
2021/01/02 11:57:05;;;;;;;2.67;1.62;;;;;;;12.91;41.78;98032.70;1694253;85;21201;-70
2021/01/02 11:59:34;;;;;;;2.77;1.95;;;;;;;12.99;41.58;98028.36;1650645;86;21173;-68
2021/01/02 12:02:06;;;;;;;4.25;1.87;;;;;;;13.33;40.77;98031.44;1669430;84;22779;-69
2021/01/02 12:04:34;;;;;;;1.62;1.40;;;;;;;13.35;40.31;98026.38;1669885;85;21218;-69
2021/01/02 12:07:03;;;;;;;3.52;1.77;;;;;;;13.87;40.14;98028.78;1669510;86;21551;-68
2021/01/02 12:09:32;;;;;;;3.52;1.80;;;;;;;13.69;39.68;98036.77;1693774;85;21176;-68
2021/01/02 12:12:00;;;;;;;2.42;1.80;;;;;;;13.44;40.47;98029.36;1693930;83;21589;-68
2021/01/02 12:14:31;;;;;;;2.95;1.80;;;;;;;13.41;40.01;98028.86;1693422;85;21303;-69